CYVM

Qikiqtarjuaq Airport

Qikiqtarjuaq, Canada
TAF CYVM 161838Z 1619/1707 01015KT 6SM -RA SCT008 OVC025 TEMPO 1619/1707 3SM -RA BR BKN008 OVC025 RMK NXT FCST BY 170100Z
Issued Valid From Valid To
Jul-16 @ 18:38 UTC
(6 hours ago)
Jul-16 @ 19:00 UTC
(5 hours ago)
Jul-17 @ 07:00 UTC
(in 7 hours)
Jul-16 @ 19:00 to Jul-17 @ 07:00
TAF CYVM 161838Z 1619/1707 01015KT 6SM -RA SCT008 OVC025
Wind Visibility Clouds Conditions
10° at 15 knots 6 miles
  • Scattered at 800' AGL
  • Overcast at 2,500' AGL
  • Light Rain
Temporary Jul-16 @ 19:00 to Jul-17 @ 07:00
TEMPO 1619/1707 3SM -RA BR BKN008 OVC025 RMK NXT FCST BY 170100Z
Visibility Clouds Conditions
3 miles
  • Broken at 800' AGL
  • Overcast at 2,500' AGL
  • Light Rain
  • Mist
TAF CYVM 161838Z 1619/1707 01015KT 6SM -RA SCT008 OVC025 TEMPO 1619/1707 3SM -RA BR BKN008 OVC025 RMK NXT FCST BY 170100Z
Issued Jul-16 @ 18:38 UTC
(6 hours ago)
Valid From Jul-16 @ 19:00 UTC
(5 hours ago)
Valid To Jul-17 @ 07:00 UTC
(in 7 hours)
Jul-16 @ 19:00 - Jul-17 @ 07:00
Wind Visibility
10° at 15 knots 6 miles
Clouds
  • Scattered at 800' AGL
  • Overcast at 2,500' AGL
Conditions
  • Light Rain
Temporary Jul-16 @ 19:00 - Jul-17 @ 07:00
Clouds
  • Broken at 800' AGL
  • Overcast at 2,500' AGL
Conditions
  • Light Rain
  • Mist